Terminal Aerodrome Forecast
Issued by NWS Midland/Odessa, TX

Home | Current Version | Previous Version | Text Only | Print | Product List | Glossary On
Versions: 1 2 3 4 5 6 7 8 9 10 11 12 13 14 15 16 17 18 19 20 21 22 23 24 25 26 27 28 29 30 31 32 33 34 35 36 37 38 39 40 41
000
FTUS44 KMAF 231607 AAC
TAFMAF
TAF AMD
KMAF 231607Z 2316/2412 20005KT P6SM OVC005
      TEMPO 2316/2317 3SM BR BKN003
     FM231900 18008KT P6SM SCT030 SCT250
     FM240500 17008KT 1SM BR OVC003=

USA.gov is the U.S. government's official web portal to all federal, state and local government web resources and services.